Primera, Texas
Current Conditions -  °F | °C
As of 10:52 AM on Sunday 21 Dec 2014 (Local Time) from KHRL Reporting Station
Light Rain Light Rain  
Wind Chill: 16°   Ceiling: 700
Heat Index: 16°   Visibility: 8mi
Dew Point: 14°   Wind: 10mph
Humidity: 93%   Direction: 330°NNW
Pressure: 30.08"   Gusts: NA
Location:  26.2089°N, 97.6849°W
Report Text: KHRL 211652Z 33009KT 8SM -RA OVC007 16/14 A3008 RMK AO2 RAB46 SLP185 P0000 T01560144
Loading
Personal Weather Stations






























Interactive Weather Map New forecast layout! Learn more

10-Day Weather Forecast

Advertisements
Track Severe Weather on mobile